createdAt,value
2022-09-09T00:02:33.690Z,100560.34
2022-09-09T00:05:05.159Z,100555.28
2022-09-09T00:07:41.621Z,100557.47
2022-09-09T00:10:26.704Z,100560.34
2022-09-09T00:13:15.283Z,100563.19
2022-09-09T00:15:48.867Z,100558.75
2022-09-09T00:18:31.284Z,100552.75
2022-09-09T00:21:10.058Z,100552.78
2022-09-09T00:23:41.644Z,100550.34
2022-09-09T00:26:31.147Z,100563.56
2022-09-09T00:29:01.571Z,100562.41
2022-09-09T00:31:34.606Z,100559.16
2022-09-09T00:34:15.238Z,100561.50
2022-09-09T00:36:48.939Z,100565.28
2022-09-09T00:39:36.971Z,100566.03
2022-09-09T00:42:24.981Z,100559.44
2022-09-09T00:44:58.407Z,100561.72
2022-09-09T00:47:45.474Z,100564.25
2022-09-09T00:50:27.360Z,100559.97
2022-09-09T00:53:03.206Z,100558.75
2022-09-09T00:55:42.908Z,100561.41
2022-09-09T00:58:12.924Z,100556.97
2022-09-09T01:00:46.632Z,100552.78
2022-09-09T01:03:21.940Z,100556.13
2022-09-09T01:06:17.436Z,100558.47
2022-09-09T01:08:55.603Z,100559.03
2022-09-09T01:11:27.387Z,100553.00
2022-09-09T01:14:19.457Z,100545.94
2022-09-09T01:16:47.850Z,100553.38
2022-09-09T01:19:21.850Z,100541.19
2022-09-09T01:21:59.680Z,100546.50
2022-09-09T01:24:45.540Z,100538.13
2022-09-09T01:27:30.005Z,100542.78
2022-09-09T01:30:01.540Z,100541.72
2022-09-09T01:32:40.101Z,100536.97
2022-09-09T01:35:22.713Z,100539.22
2022-09-09T01:37:56.432Z,100538.28
2022-09-09T01:40:29.543Z,100527.25
2022-09-09T01:43:03.529Z,100528.13
2022-09-09T01:45:38.306Z,100523.59
2022-09-09T01:48:15.621Z,100522.66
2022-09-09T01:50:47.132Z,100523.88
2022-09-09T01:53:20.601Z,100518.47
2022-09-09T01:56:26.177Z,100521.91
2022-09-09T01:59:02.299Z,100519.03
2022-09-09T02:01:41.232Z,100515.03
2022-09-09T02:04:29.230Z,100506.66
2022-09-09T02:07:05.155Z,100512.81
2022-09-09T02:09:38.475Z,100517.66
2022-09-09T02:12:08.470Z,100521.00
2022-09-09T02:14:47.561Z,100512.25
2022-09-09T02:17:20.659Z,100522.03
2022-09-09T02:20:12.631Z,100520.53
2022-09-09T02:22:59.648Z,100516.13
2022-09-09T02:25:31.103Z,100514.41
2022-09-09T02:28:16.050Z,100509.06
2022-09-09T02:30:44.916Z,100511.09
2022-09-09T02:33:15.858Z,100515.56
2022-09-09T02:35:54.348Z,100509.97
2022-09-09T02:38:30.435Z,100519.44
2022-09-09T02:41:15.686Z,100520.13
2022-09-09T02:43:45.942Z,100519.53
2022-09-09T02:46:31.081Z,100526.88
2022-09-09T02:49:03.151Z,100525.00
2022-09-09T02:51:46.742Z,100526.53
2022-09-09T02:54:24.314Z,100530.66
2022-09-09T02:56:57.667Z,100538.00
2022-09-09T02:59:41.191Z,100531.03
2022-09-09T03:02:18.602Z,100533.53
2022-09-09T03:05:03.881Z,100525.38
2022-09-09T03:07:37.385Z,100523.19
2022-09-09T03:10:11.367Z,100520.31
2022-09-09T03:12:44.920Z,100513.41
2022-09-09T03:15:20.541Z,100516.19
2022-09-09T03:18:17.077Z,100507.59
2022-09-09T03:20:52.248Z,100509.09
2022-09-09T03:23:24.322Z,100493.22
2022-09-09T03:25:57.948Z,100494.75
2022-09-09T03:28:36.669Z,100498.16
2022-09-09T03:31:11.733Z,100509.31
2022-09-09T03:33:47.341Z,100500.03
2022-09-09T03:36:22.277Z,100490.16
2022-09-09T03:38:56.173Z,100486.03
2022-09-09T03:41:28.760Z,100475.56
2022-09-09T03:43:59.173Z,100487.75
2022-09-09T03:46:35.041Z,100485.34
2022-09-09T03:49:09.822Z,100486.34
2022-09-09T03:51:41.651Z,100484.88
2022-09-09T03:54:18.810Z,100479.91
2022-09-09T03:56:51.425Z,100486.25
2022-09-09T03:59:24.703Z,100487.06
2022-09-09T04:02:00.274Z,100481.19
2022-09-09T04:04:36.840Z,100487.97
2022-09-09T04:07:09.867Z,100470.13
2022-09-09T04:09:42.924Z,100462.78
2022-09-09T04:12:17.855Z,100467.41
2022-09-09T04:14:51.858Z,100476.00
2022-09-09T04:17:25.388Z,100469.22
2022-09-09T04:20:01.201Z,100474.84
2022-09-09T04:22:34.362Z,100470.25
2022-09-09T04:25:07.510Z,100474.28
2022-09-09T04:27:39.680Z,100470.13
2022-09-09T04:30:18.472Z,100462.19
2022-09-09T04:32:51.604Z,100475.53
2022-09-09T04:35:26.964Z,100469.59
2022-09-09T04:38:01.431Z,100479.91
2022-09-09T04:40:41.691Z,100470.97
2022-09-09T04:43:14.177Z,100475.94
2022-09-09T04:45:53.039Z,100476.72
2022-09-09T04:48:26.688Z,100461.59
2022-09-09T04:50:56.554Z,100466.81
2022-09-09T04:53:26.957Z,100459.09
2022-09-09T04:56:07.732Z,100451.63
2022-09-09T04:58:44.206Z,100460.41
2022-09-09T05:01:19.590Z,100461.81
2022-09-09T05:03:50.883Z,100460.97
2022-09-09T05:06:22.343Z,100473.97
2022-09-09T05:09:00.161Z,100477.06
2022-09-09T05:11:33.760Z,100479.28
2022-09-09T05:14:12.710Z,100483.28
2022-09-09T05:16:48.226Z,100481.44
2022-09-09T05:19:20.372Z,100472.13
2022-09-09T05:21:51.775Z,100475.00
2022-09-09T05:24:27.248Z,100492.34
2022-09-09T05:27:03.893Z,100498.66
2022-09-09T05:29:40.023Z,100501.28
2022-09-09T05:32:17.445Z,100500.16
2022-09-09T05:34:54.153Z,100495.25
2022-09-09T05:37:28.026Z,100502.59
2022-09-09T05:40:00.271Z,100506.13
2022-09-09T05:42:34.318Z,100515.84
2022-09-09T05:45:10.195Z,100524.09
2022-09-09T05:47:41.713Z,100518.63
2022-09-09T05:50:20.199Z,100527.56
2022-09-09T05:52:53.955Z,100523.34
2022-09-09T05:55:26.431Z,100530.19
2022-09-09T05:58:02.635Z,100532.47
2022-09-09T06:00:33.234Z,100528.59
2022-09-09T06:03:09.921Z,100531.47
2022-09-09T06:05:40.305Z,100524.44
2022-09-09T06:08:11.549Z,100522.53
2022-09-09T06:10:45.100Z,100523.09
2022-09-09T06:13:16.516Z,100520.69
2022-09-09T06:15:53.366Z,100533.09
2022-09-09T06:18:26.029Z,100531.81
2022-09-09T06:20:58.534Z,100542.16
2022-09-09T06:23:32.510Z,100536.19
2022-09-09T06:26:12.535Z,100529.13
2022-09-09T06:28:44.030Z,100534.84
2022-09-09T06:31:29.888Z,100534.53
2022-09-09T06:34:05.125Z,100526.28
2022-09-09T06:36:39.379Z,100532.88
2022-09-09T06:39:16.704Z,100528.25
2022-09-09T06:41:54.335Z,100525.19
2022-09-09T06:44:42.754Z,100526.44
2022-09-09T06:47:15.148Z,100513.72
2022-09-09T06:49:48.244Z,100515.19
2022-09-09T06:52:22.630Z,100524.41
2022-09-09T06:54:59.662Z,100530.59
2022-09-09T06:57:37.248Z,100529.81
2022-09-09T07:00:15.799Z,100521.69
2022-09-09T07:02:49.351Z,100524.00
2022-09-09T07:05:22.420Z,100529.72
2022-09-09T07:07:55.707Z,100528.13
2022-09-09T07:10:29.520Z,100524.69
2022-09-09T07:13:02.667Z,100525.38
2022-09-09T07:15:39.088Z,100524.25
2022-09-09T07:18:11.566Z,100516.88
2022-09-09T07:20:50.115Z,100508.47
2022-09-09T07:23:23.507Z,100507.69
2022-09-09T07:25:54.419Z,100505.25
2022-09-09T07:28:31.015Z,100505.78
2022-09-09T07:31:06.419Z,100502.28
2022-09-09T07:33:37.023Z,100499.28
2022-09-09T07:36:09.530Z,100494.69
2022-09-09T07:38:46.737Z,100491.69
2022-09-09T07:41:37.332Z,100498.47
2022-09-09T07:44:33.331Z,100503.03
2022-09-09T07:47:08.752Z,100497.59
2022-09-09T07:49:42.090Z,100495.47
2022-09-09T07:52:21.894Z,100490.13
2022-09-09T07:54:58.255Z,100494.94
2022-09-09T07:57:29.122Z,100498.78
2022-09-09T08:00:02.355Z,100491.94
2022-09-09T08:02:46.340Z,100493.50
2022-09-09T08:05:21.901Z,100500.47
2022-09-09T08:07:57.540Z,100508.16
2022-09-09T08:10:33.072Z,100510.44
2022-09-09T08:13:19.463Z,100517.66
2022-09-09T08:15:53.444Z,100502.81
2022-09-09T08:18:26.601Z,100515.50
2022-09-09T08:21:00.461Z,100507.78
2022-09-09T08:23:31.267Z,100519.72
2022-09-09T08:26:04.780Z,100520.88
2022-09-09T08:28:35.348Z,100521.81
2022-09-09T08:34:00.261Z,100524.84
2022-09-09T08:36:33.783Z,100521.34
2022-09-09T08:39:12.344Z,100517.22
2022-09-09T08:41:52.755Z,100516.94
2022-09-09T08:44:35.016Z,100509.84
2022-09-09T08:47:13.844Z,100505.63
2022-09-09T08:49:49.222Z,100502.97
2022-09-09T08:52:39.428Z,100504.50
2022-09-09T08:55:18.386Z,100500.28
2022-09-09T08:57:49.353Z,100499.56
2022-09-09T09:00:22.970Z,100505.03
2022-09-09T09:02:59.896Z,100505.75
2022-09-09T09:05:47.709Z,100516.94
2022-09-09T09:08:28.823Z,100510.47
2022-09-09T09:10:59.529Z,100503.47
2022-09-09T09:13:44.252Z,100502.69
2022-09-09T09:16:33.563Z,100504.19
2022-09-09T09:19:09.254Z,100501.44
2022-09-09T09:21:46.748Z,100508.69
2022-09-09T09:24:23.504Z,100512.63
2022-09-09T09:26:55.169Z,100504.47
2022-09-09T09:29:27.732Z,100506.31
2022-09-09T09:32:03.662Z,100503.19
2022-09-09T09:34:36.363Z,100498.56
2022-09-09T09:37:15.164Z,100491.13
2022-09-09T09:42:39.769Z,100499.28
2022-09-09T09:45:20.339Z,100502.63
2022-09-09T09:48:03.012Z,100485.94
2022-09-09T09:50:40.024Z,100492.97
2022-09-09T09:53:21.922Z,100507.31
2022-09-09T09:55:58.260Z,100533.03
2022-09-09T09:58:32.431Z,100554.53
2022-09-09T10:01:03.635Z,100565.72
2022-09-09T10:03:40.344Z,100587.13
2022-09-09T10:06:08.149Z,100596.00
2022-09-09T10:08:48.043Z,100593.69
2022-09-09T10:11:41.221Z,100606.75
2022-09-09T10:14:23.421Z,100630.78
2022-09-09T10:16:53.488Z,100619.31
2022-09-09T10:19:32.369Z,100635.47
2022-09-09T10:22:09.648Z,100644.34
2022-09-09T10:25:12.486Z,100633.38
2022-09-09T10:27:45.510Z,100631.41
2022-09-09T10:30:17.907Z,100621.09
2022-09-09T10:33:03.909Z,100626.38
2022-09-09T10:35:39.450Z,100620.28
2022-09-09T10:38:15.753Z,100618.25
2022-09-09T10:40:56.532Z,100614.94
2022-09-09T10:43:39.881Z,100616.03
2022-09-09T10:46:14.306Z,100609.53
2022-09-09T10:48:48.843Z,100609.34
2022-09-09T10:51:28.331Z,100594.59
2022-09-09T10:54:07.327Z,100590.31
2022-09-09T10:56:37.269Z,100589.34
2022-09-09T10:59:13.700Z,100571.25
2022-09-09T11:02:09.974Z,100562.53
2022-09-09T11:04:44.166Z,100560.91
2022-09-09T11:07:17.461Z,100558.53
2022-09-09T11:09:52.832Z,100555.13
2022-09-09T11:12:25.905Z,100559.22
2022-09-09T11:15:09.920Z,100558.50
2022-09-09T11:17:42.927Z,100554.38
2022-09-09T11:20:15.569Z,100553.44
2022-09-09T11:23:14.954Z,100557.47
2022-09-09T11:25:53.182Z,100547.56
2022-09-09T11:28:33.081Z,100547.09
2022-09-09T11:31:06.439Z,100544.56
2022-09-09T11:33:52.501Z,100540.63
2022-09-09T11:36:37.348Z,100532.47
2022-09-09T11:39:23.807Z,100528.78
2022-09-09T11:41:58.659Z,100516.22
2022-09-09T11:44:32.684Z,100516.94
2022-09-09T11:47:05.700Z,100515.19
2022-09-09T11:49:44.599Z,100517.63
2022-09-09T11:52:27.824Z,100512.69
2022-09-09T11:55:00.928Z,100525.44
2022-09-09T11:57:40.140Z,100520.84
2022-09-09T12:00:11.102Z,100504.50
2022-09-09T12:02:51.623Z,100506.22
2022-09-09T12:05:22.250Z,100505.00
2022-09-09T12:07:56.737Z,100503.47
2022-09-09T12:10:31.243Z,100505.06
2022-09-09T12:13:19.206Z,100500.94
2022-09-09T12:15:59.285Z,100489.63
2022-09-09T12:18:40.704Z,100489.25
2022-09-09T12:21:23.116Z,100481.72
2022-09-09T12:24:00.256Z,100485.03
2022-09-09T12:26:41.442Z,100477.06
2022-09-09T12:29:23.003Z,100474.97
2022-09-09T12:31:53.985Z,100473.09
2022-09-09T12:34:41.173Z,100466.31
2022-09-09T12:37:27.559Z,100474.72
2022-09-09T12:40:06.281Z,100468.59
2022-09-09T12:42:37.980Z,100469.69
2022-09-09T12:45:27.133Z,100468.97
2022-09-09T12:48:10.184Z,100464.22
2022-09-09T12:50:47.324Z,100460.94
2022-09-09T12:53:25.609Z,100457.72
2022-09-09T12:56:04.053Z,100454.09
2022-09-09T12:58:35.880Z,100449.78
2022-09-09T13:01:06.212Z,100450.94
2022-09-09T13:03:44.030Z,100447.22
2022-09-09T13:06:12.899Z,100453.97
2022-09-09T13:08:43.538Z,100445.38
2022-09-09T13:11:15.482Z,100449.75
2022-09-09T13:13:51.976Z,100444.66
2022-09-09T13:16:24.558Z,100446.03
2022-09-09T13:18:57.512Z,100443.44
2022-09-09T13:21:43.596Z,100443.59
2022-09-09T13:24:43.140Z,100436.56
2022-09-09T13:27:29.216Z,100435.78
2022-09-09T13:29:59.106Z,100436.69
2022-09-09T13:32:32.669Z,100431.28
2022-09-09T13:35:08.469Z,100435.84
2022-09-09T13:37:42.391Z,100427.47
2022-09-09T13:40:31.427Z,100436.63
2022-09-09T13:43:03.376Z,100428.53
2022-09-09T13:45:33.364Z,100442.16
2022-09-09T13:48:09.744Z,100437.88
2022-09-09T13:50:42.721Z,100428.72
2022-09-09T13:53:16.456Z,100422.28
2022-09-09T13:55:50.435Z,100429.84
2022-09-09T13:58:27.390Z,100423.59
2022-09-09T14:00:58.685Z,100417.44
2022-09-09T14:03:34.153Z,100414.47
2022-09-09T14:06:28.523Z,100423.00
2022-09-09T14:09:02.091Z,100428.13
2022-09-09T14:11:32.673Z,100421.41
2022-09-09T14:14:06.558Z,100413.09
2022-09-09T14:16:37.464Z,100412.00
2022-09-09T14:19:11.518Z,100410.72
2022-09-09T14:21:44.028Z,100412.53
2022-09-09T14:24:17.744Z,100424.25
2022-09-09T14:26:53.158Z,100418.25
2022-09-09T14:29:24.097Z,100422.22
2022-09-09T14:31:56.054Z,100421.69
2022-09-09T14:34:28.899Z,100422.94
2022-09-09T14:36:56.987Z,100431.16
2022-09-09T14:39:30.024Z,100433.53
2022-09-09T14:42:00.739Z,100427.28
2022-09-09T14:44:34.178Z,100417.03
2022-09-09T14:47:04.785Z,100423.66
2022-09-09T14:49:53.036Z,100419.50
2022-09-09T14:52:24.245Z,100418.16
2022-09-09T14:54:54.393Z,100425.78
2022-09-09T14:57:27.410Z,100422.06
2022-09-09T15:00:00.995Z,100431.56
2022-09-09T15:02:37.080Z,100433.50
2022-09-09T15:05:16.168Z,100430.66
2022-09-09T15:07:49.013Z,100430.72
2022-09-09T15:10:23.675Z,100427.41
2022-09-09T15:12:54.324Z,100432.13
2022-09-09T15:15:24.746Z,100427.25
2022-09-09T15:18:00.405Z,100425.44
2022-09-09T15:20:40.022Z,100421.81
2022-09-09T15:23:13.342Z,100413.59
2022-09-09T15:25:56.865Z,100423.22
2022-09-09T15:28:30.385Z,100424.91
2022-09-09T15:31:07.607Z,100415.66
2022-09-09T15:33:38.717Z,100412.28
2022-09-09T15:36:18.087Z,100423.13
2022-09-09T15:38:51.105Z,100428.78
2022-09-09T15:41:22.113Z,100422.97
2022-09-09T15:44:00.224Z,100423.44
2022-09-09T15:46:38.594Z,100427.06
2022-09-09T15:49:13.086Z,100423.88
2022-09-09T15:51:47.365Z,100427.59
2022-09-09T15:54:24.492Z,100427.72
2022-09-09T15:57:01.827Z,100422.81
2022-09-09T15:59:36.951Z,100426.03
2022-09-09T16:02:08.009Z,100421.28
2022-09-09T16:04:39.075Z,100434.59
2022-09-09T16:07:14.771Z,100428.00
2022-09-09T16:09:47.271Z,100424.78
2022-09-09T16:12:20.258Z,100423.81
2022-09-09T16:14:52.699Z,100427.78
2022-09-09T16:17:28.929Z,100424.25
2022-09-09T16:20:02.130Z,100428.97
2022-09-09T16:22:32.415Z,100432.16
2022-09-09T16:25:11.274Z,100433.16
2022-09-09T16:27:39.266Z,100433.78
2022-09-09T16:30:10.257Z,100433.53
2022-09-09T16:32:46.064Z,100438.47
2022-09-09T16:35:20.690Z,100443.75
2022-09-09T16:37:51.242Z,100436.94
2022-09-09T16:40:22.116Z,100440.50
2022-09-09T16:42:55.079Z,100441.28
2022-09-09T16:45:27.507Z,100445.72
2022-09-09T16:48:00.571Z,100438.94
2022-09-09T16:50:56.711Z,100441.53
2022-09-09T16:53:29.307Z,100429.16
2022-09-09T16:56:00.063Z,100441.22
2022-09-09T16:58:34.036Z,100445.31
2022-09-09T17:01:04.568Z,100445.41
2022-09-09T17:03:34.577Z,100444.53
2022-09-09T17:06:15.160Z,100450.88
2022-09-09T17:08:50.040Z,100450.78
2022-09-09T17:11:25.604Z,100453.59
2022-09-09T17:13:56.573Z,100452.94
2022-09-09T17:16:28.589Z,100444.22
2022-09-09T17:19:02.201Z,100458.63
2022-09-09T17:21:35.687Z,100454.84
2022-09-09T17:24:06.832Z,100453.94
2022-09-09T17:26:39.965Z,100458.19
2022-09-09T17:29:12.435Z,100467.81
2022-09-09T17:31:45.273Z,100467.16
2022-09-09T17:34:18.309Z,100472.53
2022-09-09T17:36:54.042Z,100476.00
2022-09-09T17:39:24.276Z,100479.00
2022-09-09T17:41:55.906Z,100488.16
2022-09-09T17:44:33.547Z,100486.44
2022-09-09T17:47:07.352Z,100496.88
2022-09-09T17:49:40.341Z,100495.72
2022-09-09T17:52:10.699Z,100496.09
2022-09-09T17:54:42.918Z,100508.03
2022-09-09T17:57:20.206Z,100511.47
2022-09-09T17:59:53.237Z,100512.97
2022-09-09T18:02:26.054Z,100513.66
2022-09-09T18:04:57.915Z,100516.44
2022-09-09T18:07:31.284Z,100513.88
2022-09-09T18:10:05.997Z,100516.59
2022-09-09T18:12:37.362Z,100509.97
2022-09-09T18:15:24.172Z,100521.78
2022-09-09T18:18:19.751Z,100515.47
2022-09-09T18:20:50.305Z,100518.00
2022-09-09T18:23:21.194Z,100513.84
2022-09-09T18:25:58.985Z,100517.34
2022-09-09T18:28:30.404Z,100520.69
2022-09-09T18:31:00.839Z,100527.22
2022-09-09T18:33:33.589Z,100525.38
2022-09-09T18:36:09.888Z,100528.56
2022-09-09T18:38:40.992Z,100535.94
2022-09-09T18:41:26.131Z,100537.09
2022-09-09T18:44:01.042Z,100540.53
2022-09-09T18:46:38.767Z,100539.50
2022-09-09T18:49:11.927Z,100546.59
2022-09-09T18:51:47.303Z,100539.38
2022-09-09T18:54:23.338Z,100546.72
2022-09-09T18:56:54.070Z,100549.91
2022-09-09T18:59:24.308Z,100550.88
2022-09-09T19:01:57.841Z,100550.06
2022-09-09T19:04:30.448Z,100542.69
2022-09-09T19:07:00.810Z,100552.47
2022-09-09T19:09:31.247Z,100550.97
2022-09-09T19:12:02.451Z,100559.94
2022-09-09T19:14:35.832Z,100554.75
2022-09-09T19:17:08.800Z,100557.63
2022-09-09T19:19:43.884Z,100550.84
2022-09-09T19:22:15.273Z,100558.31
2022-09-09T19:24:46.260Z,100564.50
2022-09-09T19:27:21.775Z,100570.81
2022-09-09T19:29:56.373Z,100577.81
2022-09-09T19:35:31.040Z,100568.75
2022-09-09T19:38:05.130Z,100571.88
2022-09-09T19:40:38.260Z,100576.53
2022-09-09T19:43:09.924Z,100573.13
2022-09-09T19:45:45.075Z,100572.34
2022-09-09T19:48:20.545Z,100577.81
2022-09-09T19:50:51.235Z,100577.47
2022-09-09T19:53:24.433Z,100580.50
2022-09-09T19:55:58.022Z,100582.78
2022-09-09T19:58:34.475Z,100588.97
2022-09-09T20:01:06.119Z,100586.31
2022-09-09T20:03:39.098Z,100590.03
2022-09-09T20:06:33.629Z,100595.53
2022-09-09T20:09:04.556Z,100591.06
2022-09-09T20:11:39.412Z,100600.41
2022-09-09T20:14:15.963Z,100596.66
2022-09-09T20:16:49.406Z,100593.69
2022-09-09T20:19:22.410Z,100600.63
2022-09-09T20:21:52.265Z,100597.34
2022-09-09T20:24:26.380Z,100599.88
2022-09-09T20:27:04.499Z,100606.06
2022-09-09T20:29:35.333Z,100606.88
2022-09-09T20:32:07.963Z,100605.16
2022-09-09T20:34:47.803Z,100598.09
2022-09-09T20:37:21.740Z,100588.28
2022-09-09T20:39:53.275Z,100602.13
2022-09-09T20:42:26.191Z,100588.81
2022-09-09T20:45:00.281Z,100597.88
2022-09-09T20:47:33.125Z,100596.88
2022-09-09T20:50:06.066Z,100594.22
2022-09-09T20:52:37.803Z,100601.22
2022-09-09T20:55:11.067Z,100605.16
2022-09-09T20:57:43.577Z,100613.28
2022-09-09T21:00:15.001Z,100604.97
2022-09-09T21:02:47.684Z,100588.13
2022-09-09T21:05:23.809Z,100581.28
2022-09-09T21:07:57.758Z,100584.88
2022-09-09T21:10:27.583Z,100586.31
2022-09-09T21:13:01.599Z,100577.78
2022-09-09T21:15:36.860Z,100573.78
2022-09-09T21:18:11.568Z,100594.94
2022-09-09T21:20:39.354Z,100616.63
2022-09-09T21:23:13.308Z,100643.16
2022-09-09T21:25:51.861Z,100668.63
2022-09-09T21:28:28.468Z,100662.69
2022-09-09T21:31:02.085Z,100617.31
2022-09-09T21:33:36.329Z,100612.63
2022-09-09T21:36:06.864Z,100615.44
2022-09-09T21:38:45.771Z,100631.50
2022-09-09T21:41:17.802Z,100638.00
2022-09-09T21:43:57.860Z,100655.91
2022-09-09T21:46:28.373Z,100676.22
2022-09-09T21:49:03.649Z,100666.28
2022-09-09T21:51:34.506Z,100666.06
2022-09-09T21:54:05.132Z,100664.66
2022-09-09T21:56:37.984Z,100635.13
2022-09-09T21:59:10.674Z,100622.84
2022-09-09T22:01:42.129Z,100617.97
2022-09-09T22:04:12.195Z,100636.09
2022-09-09T22:06:39.599Z,100659.00
2022-09-09T22:09:12.997Z,100666.91
2022-09-09T22:11:43.643Z,100659.16
2022-09-09T22:14:16.425Z,100662.91
2022-09-09T22:16:51.562Z,100647.72
2022-09-09T22:19:22.114Z,100648.38
2022-09-09T22:21:53.548Z,100655.34
2022-09-09T22:24:26.523Z,100657.41
2022-09-09T22:27:17.353Z,100653.19
2022-09-09T22:29:45.168Z,100654.63
2022-09-09T22:32:16.528Z,100640.13
2022-09-09T22:34:44.292Z,100634.97
2022-09-09T22:37:14.957Z,100628.84
2022-09-09T22:39:43.163Z,100621.25
2022-09-09T22:42:15.897Z,100643.28
2022-09-09T22:44:48.278Z,100633.94
2022-09-09T22:47:22.351Z,100642.53
2022-09-09T22:49:57.063Z,100650.94
2022-09-09T22:52:40.480Z,100655.47
2022-09-09T22:55:09.533Z,100650.28
2022-09-09T22:57:47.697Z,100651.81
2022-09-09T23:00:21.059Z,100664.56
2022-09-09T23:02:54.550Z,100660.41
2022-09-09T23:05:25.490Z,100654.53
2022-09-09T23:07:58.656Z,100657.38
2022-09-09T23:10:34.903Z,100645.75
2022-09-09T23:13:09.331Z,100641.94
2022-09-09T23:16:07.037Z,100643.50
2022-09-09T23:18:44.560Z,100644.06
2022-09-09T23:21:16.567Z,100642.84
2022-09-09T23:23:49.937Z,100633.19
2022-09-09T23:26:21.022Z,100637.34
2022-09-09T23:28:58.399Z,100644.84
2022-09-09T23:31:33.146Z,100637.47
2022-09-09T23:34:06.666Z,100637.09
2022-09-09T23:36:40.580Z,100658.13
2022-09-09T23:39:18.777Z,100644.69
2022-09-09T23:41:52.037Z,100643.72
2022-09-09T23:44:23.860Z,100632.75
2022-09-09T23:46:56.958Z,100638.91
2022-09-09T23:49:32.412Z,100650.31
2022-09-09T23:52:05.465Z,100657.16
2022-09-09T23:54:41.383Z,100661.66
2022-09-09T23:57:13.677Z,100660.41
2022-09-09T23:59:45.689Z,100654.59
